Time;durP1;ratioP1;P1;durP2;ratioP2;P2;SDS_P1;SDS_P2;PMS_P1;PMS_P2;Temp;Humidity;BMP_temperature;BMP_pressure;BME280_temperature;BME280_humidity;BME280_pressure;Samples;Min_cycle;Max_cycle;Signal;HPM_P1;HPM_P2
2022/08/20 00:01:50;;;;;;;2.78;1.60;;;22.60;99.90;;;23.11;100.00;100897.00;5188956;28;20044;-65
2022/08/20 00:04:24;;;;;;;2.22;1.30;;;22.60;99.90;;;23.10;100.00;100900.56;5205732;28;20052;-66
2022/08/20 00:06:56;;;;;;;1.98;1.48;;;22.60;99.90;;;23.07;100.00;100889.97;5205092;28;20041;-67
2022/08/20 00:09:28;;;;;;;5.32;2.22;;;22.60;99.90;;;23.02;100.00;100903.34;5205696;28;20463;-68
2022/08/20 00:12:01;;;;;;;2.05;1.30;;;22.50;99.90;;;23.00;100.00;100901.59;5204855;28;20048;-68
2022/08/20 00:14:34;;;;;;;2.03;1.55;;;22.50;99.90;;;22.99;100.00;100898.06;5205304;28;20510;-64
2022/08/20 00:17:06;;;;;;;1.73;1.60;;;22.50;99.90;;;22.97;100.00;100904.31;5205422;28;20045;-68
2022/08/20 00:19:40;;;;;;;2.50;1.58;;;22.50;99.90;;;22.97;100.00;100902.53;5205223;28;20056;-68
2022/08/20 00:22:12;;;;;;;2.50;1.65;;;22.50;99.90;;;22.94;100.00;100889.28;5205458;28;20049;-66
2022/08/20 00:24:44;;;;;;;1.88;1.38;;;22.50;99.90;;;22.96;100.00;100894.59;5205271;28;20574;-68
2022/08/20 00:27:16;;;;;;;2.58;1.70;;;22.50;99.90;;;22.96;100.00;100892.81;5204177;28;20096;-66
2022/08/20 00:29:48;;;;;;;1.63;1.52;;;22.50;99.90;;;22.96;100.00;100897.25;5187351;28;20084;-67
2022/08/20 00:32:22;;;;;;;2.03;1.10;;;22.50;99.90;;;22.98;100.00;100891.00;5204557;28;20132;-66
2022/08/20 00:34:55;;;;;;;2.55;1.50;;;22.50;99.90;;;22.96;100.00;100890.16;5186885;28;20058;-66
2022/08/20 00:37:27;;;;;;;1.60;1.33;;;22.50;99.90;;;22.95;100.00;100899.03;5204777;28;20041;-67
2022/08/20 00:40:00;;;;;;;2.30;1.35;;;22.50;99.90;;;22.95;100.00;100888.41;5204412;28;20050;-66
2022/08/20 00:42:42;;;;;;;2.35;1.23;;;22.40;99.90;;;22.95;100.00;100891.06;5204779;28;20041;-65
2022/08/20 00:45:15;;;;;;;1.85;1.55;;;22.50;99.90;;;22.94;100.00;100888.41;5204937;28;20052;-68
2022/08/20 00:47:47;;;;;;;1.95;1.23;;;22.40;99.90;;;22.92;100.00;100899.06;5204773;28;20045;-68
2022/08/20 00:50:27;;;;;;;2.60;1.65;;;22.40;99.90;;;22.89;100.00;100901.78;5204927;28;20049;-68
2022/08/20 00:53:02;;;;;;;3.13;2.10;;;22.40;99.90;;;22.85;100.00;100902.66;5187138;28;20046;-68
2022/08/20 00:55:36;;;;;;;3.97;2.20;;;22.40;99.90;;;22.77;100.00;100901.91;5204790;28;20064;-68
2022/08/20 00:58:09;;;;;;;2.80;1.73;;;22.30;99.90;;;22.72;100.00;100909.06;5204299;28;20112;-66
2022/08/20 01:00:45;;;;;;;3.22;1.60;;;22.20;99.90;;;22.72;100.00;100909.06;5204191;28;20045;-66
2022/08/20 01:03:20;;;;;;;2.70;1.77;;;22.30;99.90;;;22.71;100.00;100909.97;5204826;28;20494;-67
2022/08/20 01:05:54;;;;;;;3.97;2.03;;;22.20;99.90;;;22.72;100.00;100914.38;5204460;28;20080;-68
2022/08/20 01:08:27;;;;;;;2.72;1.95;;;22.30;99.90;;;22.75;100.00;100909.00;5204058;28;20057;-68
2022/08/20 01:11:08;;;;;;;2.47;1.75;;;22.20;99.90;;;22.72;100.00;100911.72;5204333;28;20041;-68
2022/08/20 01:13:41;;;;;;;4.50;2.60;;;22.20;99.90;;;22.64;100.00;100910.94;5204183;28;20045;-66
2022/08/20 01:16:19;;;;;;;2.63;1.92;;;22.20;99.90;;;22.56;100.00;100907.47;5204257;28;20289;-68
2022/08/20 01:18:52;;;;;;;5.60;2.03;;;22.10;99.90;;;22.49;100.00;100909.34;5203950;28;20044;-66
2022/08/20 01:21:30;;;;;;;2.15;1.50;;;22.00;99.90;;;22.43;100.00;100901.44;5204167;28;20052;-67
2022/08/20 01:24:08;;;;;;;5.03;2.45;;;22.00;99.90;;;22.40;100.00;100906.81;5187011;28;20529;-67
2022/08/20 01:26:46;;;;;;;4.07;2.00;;;21.90;99.90;;;22.36;100.00;100903.28;5204183;28;20092;-66
2022/08/20 01:29:22;;;;;;;3.33;1.92;;;21.90;99.90;;;22.29;100.00;100898.94;5204019;28;20125;-66
2022/08/20 01:31:59;;;;;;;3.72;1.95;;;21.80;99.90;;;22.23;100.00;100899.03;5204221;28;20405;-68
2022/08/20 01:34:32;;;;;;;3.75;2.20;;;21.80;99.90;;;22.15;100.00;100903.53;5203790;28;20037;-68
2022/08/20 01:37:04;;;;;;;5.18;2.00;;;21.70;99.90;;;22.10;100.00;100890.31;5186677;28;20147;-66
2022/08/20 01:39:37;;;;;;;2.50;1.67;;;21.70;99.90;;;22.10;100.00;100886.78;5207809;28;20057;-67
2022/08/20 01:42:15;;;;;;;2.15;1.75;;;21.60;99.90;;;22.10;100.00;100887.66;5208367;28;20059;-65
2022/08/20 01:44:48;;;;;;;4.43;2.10;;;21.60;99.90;;;22.11;100.00;100885.91;5208679;28;20042;-66
2022/08/20 01:47:26;;;;;;;2.42;1.80;;;21.70;99.90;;;22.11;100.00;100891.22;5208100;28;20156;-71
2022/08/20 01:50:04;;;;;;;2.20;1.70;;;21.60;99.90;;;22.11;100.00;100888.56;5190002;28;20147;-70
2022/08/20 01:52:43;;;;;;;2.10;1.58;;;21.60;99.90;;;22.11;100.00;100891.22;5190183;28;20464;-69
2022/08/20 01:55:15;;;;;;;2.33;1.48;;;21.60;99.90;;;22.10;100.00;100894.75;5207830;28;20195;-70
2022/08/20 01:57:49;;;;;;;3.17;1.90;;;21.60;99.90;;;22.03;100.00;100898.34;5189682;28;20099;-70
2022/08/20 02:00:23;;;;;;;3.25;2.15;;;21.60;99.90;;;21.91;100.00;100908.19;5206313;28;20135;-70
2022/08/20 02:02:56;;;;;;;2.70;1.83;;;21.50;99.90;;;21.85;100.00;100918.88;5208134;28;20520;-70
2022/08/20 02:05:28;;;;;;;3.25;2.17;;;21.40;99.90;;;21.77;100.00;100919.81;5189978;28;20049;-70
2022/08/20 02:08:01;;;;;;;2.28;1.85;;;21.30;99.90;;;21.72;100.00;100914.56;5206961;28;20041;-70
2022/08/20 02:10:34;;;;;;;4.13;1.70;;;21.30;99.90;;;21.70;100.00;100918.13;5207605;28;20521;-69
2022/08/20 02:13:08;;;;;;;2.17;1.50;;;21.20;99.90;;;21.68;100.00;100907.53;5207369;28;20133;-70
2022/08/20 02:15:41;;;;;;;;;;;21.20;99.90;;;21.67;100.00;100919.91;5207563;28;20053;-70
2022/08/20 02:18:16;;;;;;;3.83;1.90;;;21.20;99.90;;;21.64;100.00;100919.03;5206911;28;19925;-70
2022/08/20 02:20:50;;;;;;;3.13;1.90;;;21.20;99.90;;;21.60;100.00;100917.34;5207360;28;20120;-71
2022/08/20 02:23:23;;;;;;;1.60;1.50;;;21.20;99.90;;;21.58;100.00;100921.75;5207019;28;20518;-70
2022/08/20 02:25:55;;;;;;;3.65;1.88;;;21.10;99.90;;;21.55;100.00;100921.78;5207167;28;20510;-70
2022/08/20 02:28:29;;;;;;;2.40;1.60;;;21.10;99.90;;;21.55;100.00;100911.19;5207028;28;20050;-70
2022/08/20 02:31:02;;;;;;;1.77;1.45;;;21.10;99.90;;;21.54;100.00;100912.06;5207035;28;20041;-71
2022/08/20 02:33:35;;;;;;;2.85;1.40;;;21.10;99.90;;;21.50;100.00;100910.34;5206985;28;20552;-70
2022/08/20 02:36:09;;;;;;;2.40;1.58;;;21.10;99.90;;;21.49;100.00;100913.88;5206467;28;20387;-70
2022/08/20 02:38:42;;;;;;;2.42;1.40;;;21.00;99.90;;;21.48;100.00;100912.13;5206802;28;20091;-70
2022/08/20 02:41:15;;;;;;;2.17;1.75;;;21.00;99.90;;;21.46;100.00;100911.28;5206925;28;20049;-70
2022/08/20 02:43:50;;;;;;;2.30;1.35;;;21.00;99.90;;;21.45;100.00;100906.81;5207261;28;20052;-70
2022/08/20 02:46:22;;;;;;;2.45;1.45;;;21.00;99.90;;;21.43;100.00;100912.16;5206559;28;20131;-71
2022/08/20 02:48:54;;;;;;;2.47;1.75;;;21.00;99.90;;;21.41;100.00;100913.94;5205970;28;20391;-70
2022/08/20 02:51:28;;;;;;;2.47;1.50;;;20.90;99.90;;;21.42;100.00;100917.47;5206784;28;20421;-71
2022/08/20 02:54:00;;;;;;;;;;;21.00;99.90;;;21.38;100.00;100917.47;5206949;28;20042;-70
2022/08/20 02:56:33;;;;;;;2.10;1.50;;;20.90;99.90;;;21.37;100.00;100921.03;5206160;28;19925;-71
2022/08/20 02:59:07;;;;;;;2.17;1.50;;;20.90;99.90;;;21.34;100.00;100920.19;5206219;28;20049;-70
2022/08/20 03:01:40;;;;;;;2.17;1.27;;;20.90;99.90;;;21.34;100.00;100926.38;5206756;28;20128;-70
2022/08/20 03:04:12;;;;;;;2.33;1.33;;;20.90;99.90;;;21.33;100.00;100924.63;5206330;28;20049;-70
2022/08/20 03:06:45;;;;;;;2.40;1.33;;;20.90;99.90;;;21.34;100.00;100925.50;5205985;28;20121;-70
2022/08/20 03:09:17;;;;;;;1.50;1.40;;;20.90;99.90;;;21.34;100.00;100920.19;5205929;28;20451;-70
2022/08/20 03:11:50;;;;;;;3.10;1.50;;;20.90;99.90;;;21.34;100.00;100918.41;5206577;28;20053;-70
2022/08/20 03:14:24;;;;;;;1.88;1.23;;;20.90;99.90;;;21.33;100.00;100916.66;5206094;28;20045;-70
2022/08/20 03:16:56;;;;;;;2.53;1.35;;;20.90;99.90;;;21.32;100.00;100909.59;5205797;28;20052;-70
2022/08/20 03:19:29;;;;;;;2.70;1.50;;;20.90;99.90;;;21.30;100.00;100908.72;5206075;28;20119;-71
2022/08/20 03:22:01;;;;;;;1.98;1.35;;;20.90;99.90;;;21.29;100.00;100906.97;5188623;28;20155;-71
2022/08/20 03:24:33;;;;;;;1.38;1.13;;;20.90;99.90;;;21.28;100.00;100912.25;5206248;28;20494;-70
2022/08/20 03:27:05;;;;;;;1.90;1.30;;;20.90;99.90;;;21.30;100.00;100918.44;5205905;28;20049;-71
2022/08/20 03:29:39;;;;;;;1.75;1.40;;;20.80;99.90;;;21.30;100.00;100915.78;5205839;28;20045;-70
2022/08/20 03:32:11;;;;;;;1.88;1.42;;;20.80;99.90;;;21.33;100.00;100911.34;5205736;28;20045;-70
2022/08/20 03:34:43;;;;;;;2.50;1.50;;;20.90;99.90;;;21.35;100.00;100914.88;5205722;28;20053;-71
2022/08/20 03:37:15;;;;;;;2.17;1.52;;;20.90;99.90;;;21.38;100.00;100913.94;5205465;28;20042;-70
2022/08/20 03:39:47;;;;;;;1.95;1.33;;;20.90;99.90;;;21.38;100.00;100912.19;5187681;28;20080;-72
2022/08/20 03:42:20;;;;;;;2.38;1.60;;;20.90;99.90;;;21.41;100.00;100911.28;5205841;28;20046;-70
2022/08/20 03:44:56;;;;;;;1.80;1.40;;;21.00;99.90;;;21.44;100.00;100910.38;5206606;28;20053;-71
2022/08/20 03:47:28;;;;;;;2.15;1.42;;;20.90;99.90;;;21.44;100.00;100905.94;5206213;28;20037;-70
2022/08/20 03:50:04;;;;;;;2.63;2.00;;;21.00;99.90;;;21.47;100.00;100910.38;5206355;28;20041;-71
2022/08/20 03:52:36;;;;;;;2.53;1.73;;;21.00;99.90;;;21.47;100.00;100911.25;5188576;28;20395;-71
2022/08/20 03:55:11;;;;;;;1.83;1.40;;;21.00;99.90;;;21.50;100.00;100912.97;5205463;28;20046;-71
2022/08/20 03:57:45;;;;;;;3.60;1.52;;;21.00;99.90;;;21.51;100.00;100914.75;5204729;28;20120;-71
2022/08/20 04:00:22;;;;;;;2.53;1.67;;;21.00;99.90;;;21.51;100.00;100904.13;5205370;28;20044;-70
2022/08/20 04:02:56;;;;;;;2.15;1.70;;;21.00;99.90;;;21.51;100.00;100906.78;5205248;28;20406;-72
2022/08/20 04:05:30;;;;;;;3.25;1.58;;;21.00;99.90;;;21.51;100.00;100901.47;5205207;28;20116;-70
2022/08/20 04:08:04;;;;;;;3.00;1.55;;;21.00;99.90;;;21.51;100.00;100912.09;5204539;28;20435;-71
2022/08/20 04:10:36;;;;;;;;;;;21.00;99.90;;;21.54;100.00;100906.78;5187656;28;20049;-70
2022/08/20 04:13:10;;;;;;;1.90;1.40;;;21.10;99.90;;;21.56;100.00;100905.84;5204930;28;19927;-70
2022/08/20 04:15:45;;;;;;;2.47;1.75;;;21.10;99.90;;;21.59;100.00;100916.47;5203447;28;20061;-70
2022/08/20 04:18:19;;;;;;;2.10;1.70;;;21.10;99.90;;;21.59;100.00;100915.59;5204815;28;20046;-70
2022/08/20 04:20:53;;;;;;;2.22;1.50;;;21.10;99.90;;;21.62;100.00;100920.84;5187054;28;20099;-71
2022/08/20 04:23:25;;;;;;;2.40;1.52;;;21.10;99.90;;;21.63;100.00;100922.59;5205140;28;20056;-70
2022/08/20 04:25:58;;;;;;;2.60;1.50;;;21.10;99.90;;;21.64;100.00;100925.22;5204432;28;20049;-71
2022/08/20 04:28:30;;;;;;;3.22;1.67;;;21.20;99.90;;;21.66;100.00;100923.47;5205111;28;20053;-69
2022/08/20 04:31:04;;;;;;;3.13;1.90;;;21.20;99.90;;;21.68;100.00;100923.44;5205302;28;20051;-69
2022/08/20 04:33:36;;;;;;;4.15;2.40;;;21.20;99.90;;;21.67;100.00;100929.66;5204708;28;20045;-71
2022/08/20 04:36:08;;;;;;;3.95;2.20;;;21.20;99.90;;;21.63;100.00;100934.09;5203802;28;20131;-71
2022/08/20 04:38:41;;;;;;;4.95;2.25;;;21.20;99.90;;;21.60;100.00;100943.84;5204031;28;20042;-71
2022/08/20 04:41:13;;;;;;;5.72;2.40;;;21.10;99.90;;;21.55;100.00;100945.66;5204311;28;20096;-70
2022/08/20 04:43:46;;;;;;;3.97;2.90;;;21.10;99.90;;;21.48;100.00;100941.28;5204091;28;20049;-70
2022/08/20 04:46:20;;;;;;;5.55;3.15;;;21.10;99.90;;;21.43;100.00;100948.41;5203610;28;20469;-70
2022/08/20 04:48:52;;;;;;;8.38;4.10;;;21.00;99.90;;;21.33;100.00;100945.81;5203910;28;20506;-70
2022/08/20 04:51:26;;;;;;;6.88;3.60;;;20.90;99.90;;;21.24;100.00;100951.13;5186189;28;20056;-70
2022/08/20 04:53:59;;;;;;;4.55;2.70;;;20.80;99.90;;;21.20;100.00;100952.06;5204288;28;20076;-69
2022/08/20 04:56:37;;;;;;;6.07;2.80;;;20.80;99.90;;;21.18;100.00;100955.59;5203801;28;20069;-71
2022/08/20 04:59:09;;;;;;;6.50;3.08;;;20.70;99.90;;;21.16;100.00;100958.28;5204068;28;20418;-69
2022/08/20 05:01:44;;;;;;;6.03;3.45;;;20.70;99.90;;;21.18;100.00;100968.84;5204466;28;20505;-69
2022/08/20 05:04:16;;;;;;;6.07;3.28;;;20.70;99.90;;;21.10;100.00;100963.59;5204252;28;20545;-69
2022/08/20 05:06:49;;;;;;;6.20;3.50;;;20.70;99.90;;;21.10;100.00;100977.72;5204109;28;20048;-69
2022/08/20 05:09:21;;;;;;;6.00;3.63;;;20.70;99.90;;;21.07;100.00;100968.94;5203573;28;20053;-69
2022/08/20 05:11:53;;;;;;;4.10;3.17;;;20.60;99.90;;;21.05;100.00;100963.63;5186033;28;20468;-70
2022/08/20 05:14:25;;;;;;;4.72;2.38;;;20.70;99.90;;;21.03;100.00;100968.06;5203867;28;20041;-70
2022/08/20 05:17:03;;;;;;;4.90;2.40;;;20.60;99.90;;;21.01;100.00;100974.25;5204052;28;20044;-70
2022/08/20 05:19:36;;;;;;;3.53;2.10;;;20.60;99.90;;;20.99;100.00;100976.03;5203775;28;20052;-70
2022/08/20 05:22:09;;;;;;;3.92;2.40;;;20.60;99.90;;;20.99;100.00;100973.38;5203523;28;20404;-69
2022/08/20 05:24:41;;;;;;;4.75;2.35;;;20.60;99.90;;;20.98;100.00;100976.91;5202354;28;20053;-70
2022/08/20 05:27:13;;;;;;;3.40;2.28;;;20.50;99.90;;;20.96;100.00;100976.94;5204001;28;20395;-69
2022/08/20 05:29:45;;;;;;;3.72;2.22;;;20.50;99.90;;;20.96;100.00;100986.66;5204334;28;20042;-70
2022/08/20 05:32:19;;;;;;;2.45;1.63;;;20.50;99.90;;;20.93;100.00;100986.66;5204186;28;20042;-69
2022/08/20 05:34:51;;;;;;;2.35;1.75;;;20.50;99.90;;;20.90;100.00;100992.84;5204393;28;20045;-70
2022/08/20 05:37:23;;;;;;;2.33;1.73;;;20.50;99.90;;;20.86;100.00;100992.00;5203568;28;20046;-70
2022/08/20 05:39:55;;;;;;;3.67;2.00;;;20.50;99.90;;;20.86;100.00;100986.72;5204197;28;20590;-70
2022/08/20 05:42:27;;;;;;;3.05;2.15;;;20.40;99.90;;;20.87;100.00;100987.59;5204157;28;20494;-69
2022/08/20 05:45:00;;;;;;;3.47;2.00;;;20.50;99.90;;;20.88;100.00;100988.47;5204114;28;20041;-68
2022/08/20 05:47:38;;;;;;;3.25;2.13;;;20.40;99.90;;;20.85;100.00;100990.22;5203810;28;20092;-70
2022/08/20 05:50:12;;;;;;;2.78;1.80;;;20.40;99.90;;;20.89;100.00;100987.56;5204044;28;20474;-68
2022/08/20 05:52:45;;;;;;;2.95;2.10;;;20.40;99.90;;;20.90;100.00;100976.09;5203995;28;20042;-68
2022/08/20 05:55:17;;;;;;;4.82;2.47;;;20.50;99.90;;;20.90;100.00;100986.69;5204235;28;20076;-67
2022/08/20 05:57:55;;;;;;;2.97;2.05;;;20.50;99.90;;;20.92;100.00;100979.59;5203454;28;20123;-68
2022/08/20 06:00:29;;;;;;;3.05;2.20;;;20.50;99.90;;;20.96;100.00;100997.25;5204019;28;20498;-68
2022/08/20 06:05:53;;;;;;;4.88;2.15;;;20.50;99.90;;;21.06;100.00;100988.34;5202871;28;20091;-63
2022/08/20 06:08:26;;;;;;;4.45;2.50;;;20.60;99.90;;;21.09;100.00;101004.25;5203234;28;20136;-63
2022/08/20 06:10:58;;;;;;;6.78;3.05;;;20.60;99.90;;;21.11;100.00;101002.47;5203303;28;20047;-62
2022/08/20 06:13:30;;;;;;;6.97;4.22;;;20.70;99.90;;;21.14;100.00;101007.78;5203279;28;20046;-61
2022/08/20 06:16:03;;;;;;;13.00;7.25;;;20.70;99.90;;;21.11;100.00;101002.47;5203081;28;20447;-60
2022/08/20 06:18:36;;;;;;;12.35;6.55;;;20.70;99.90;;;21.09;100.00;101004.25;5202900;28;20038;-60
2022/08/20 06:21:08;;;;;;;14.00;7.72;;;20.70;99.90;;;21.03;100.00;101006.94;5203304;28;20075;-62
2022/08/20 06:23:41;;;;;;;16.20;8.50;;;20.60;99.90;;;20.95;100.00;101011.41;5203206;28;20072;-62
2022/08/20 06:26:13;;;;;;;17.67;10.25;;;20.50;99.90;;;20.90;100.00;101005.22;5206297;28;20052;-63
2022/08/20 06:28:45;;;;;;;13.98;7.20;;;20.50;99.90;;;20.86;100.00;101005.25;5206696;28;20041;-62
2022/08/20 06:31:17;;;;;;;14.88;8.43;;;20.50;99.90;;;20.84;100.00;101007.00;5206815;28;20052;-64
2022/08/20 06:33:50;;;;;;;17.38;9.80;;;20.40;99.90;;;20.79;100.00;101006.13;5206715;28;20056;-60
2022/08/20 06:36:23;;;;;;;16.40;9.40;;;20.40;99.90;;;20.79;100.00;101013.22;5206284;28;20053;-64
2022/08/20 06:38:57;;;;;;;15.45;8.15;;;20.40;99.90;;;20.75;100.00;101019.41;5206460;28;20556;-62
2022/08/20 06:41:29;;;;;;;14.50;7.80;;;20.40;99.90;;;20.72;100.00;101024.72;5206517;28;20115;-64
2022/08/20 06:44:01;;;;;;;12.98;7.20;;;20.30;99.90;;;20.72;100.00;101020.28;5189084;28;20068;-64
2022/08/20 06:46:34;;;;;;;10.43;6.50;;;20.30;99.90;;;20.74;100.00;101031.78;5206434;28;20115;-66
2022/08/20 06:49:08;;;;;;;10.85;5.80;;;20.30;99.90;;;20.79;100.00;101027.31;5206551;28;20041;-58
2022/08/20 06:51:40;;;;;;;7.75;4.43;;;20.40;99.90;;;20.94;100.00;101030.84;5206516;28;20041;-58
2022/08/20 06:54:12;;;;;;;6.90;3.42;;;20.50;99.90;;;21.19;100.00;101026.28;5206289;28;20046;-58
2022/08/20 06:56:44;;;;;;;11.63;5.25;;;20.70;99.90;;;21.44;100.00;101027.06;5205960;28;20051;-57
2022/08/20 06:59:16;;;;;;;8.40;4.10;;;21.00;99.90;;;21.60;100.00;101028.75;5206391;28;20502;-58
2022/08/20 07:01:49;;;;;;;9.00;4.30;;;21.20;99.90;;;21.73;100.00;101041.03;5206170;28;20049;-58
2022/08/20 07:04:23;;;;;;;7.97;4.63;;;21.30;99.90;;;21.86;100.00;101036.50;5206070;28;20406;-59
2022/08/20 07:06:57;;;;;;;6.32;3.72;;;21.50;99.90;;;21.89;100.00;101037.34;5205557;28;20538;-58
2022/08/20 07:09:29;;;;;;;7.03;3.92;;;21.50;99.90;;;21.91;100.00;101037.38;5206361;28;20058;-60
2022/08/20 07:12:01;;;;;;;8.48;4.43;;;21.50;99.90;;;21.91;100.00;101046.19;5206157;28;20051;-58
2022/08/20 07:14:34;;;;;;;9.55;4.50;;;21.60;99.90;;;21.93;100.00;101043.53;5205824;28;20052;-55
2022/08/20 07:17:06;;;;;;;8.43;4.43;;;21.60;99.90;;;22.00;100.00;101047.88;5205700;28;20107;-54
2022/08/20 07:19:40;;;;;;;7.35;4.05;;;21.60;99.90;;;22.09;100.00;101049.63;5205920;28;20046;-54
2022/08/20 07:22:13;;;;;;;7.68;4.97;;;21.70;99.90;;;22.12;100.00;101054.91;5205968;28;20069;-57
2022/08/20 07:24:45;;;;;;;6.45;4.00;;;21.70;99.90;;;22.09;100.00;101049.63;5205713;28;20120;-56
2022/08/20 07:27:22;;;;;;;8.90;4.32;;;21.70;99.90;;;22.08;100.00;101054.00;5187531;28;20050;-60
2022/08/20 07:32:45;;;;;;;8.50;4.57;;;21.70;99.90;;;22.03;100.00;101060.25;5205910;28;20052;-60
2022/08/20 07:35:19;;;;;;;8.20;4.93;;;21.60;99.90;;;21.98;100.00;101057.66;5205347;28;20073;-62
2022/08/20 07:37:53;;;;;;;8.43;5.55;;;21.60;99.90;;;21.98;100.00;101062.09;5205772;28;20144;-55
2022/08/20 07:40:29;;;;;;;6.82;4.63;;;21.60;99.90;;;21.96;100.00;101064.72;5206211;28;20564;-57
2022/08/20 07:43:02;;;;;;;8.68;5.30;;;21.60;99.90;;;21.97;100.00;101062.94;5205978;28;20526;-57
2022/08/20 07:45:35;;;;;;;11.43;5.78;;;21.60;99.90;;;21.97;100.00;101065.59;5206004;28;20096;-62
2022/08/20 07:48:10;;;;;;;7.60;4.93;;;21.60;99.90;;;22.02;100.00;101064.69;5205510;28;20052;-57
2022/08/20 07:50:44;;;;;;;8.90;5.20;;;21.60;99.90;;;22.10;100.00;101067.28;5205963;28;20072;-54
2022/08/20 07:53:16;;;;;;;6.30;4.15;;;21.60;99.90;;;22.21;100.00;101062.78;5205848;28;20080;-56
2022/08/20 07:55:48;;;;;;;8.80;4.50;;;21.80;99.90;;;22.28;100.00;101061.84;5204230;28;20053;-57
2022/08/20 07:58:22;;;;;;;7.13;3.83;;;21.80;99.90;;;22.38;100.00;101066.19;5205628;28;20522;-60
2022/08/20 08:00:54;;;;;;;11.07;6.72;;;21.80;99.90;;;22.60;100.00;101068.63;5205743;28;20053;-55
2022/08/20 08:03:28;;;;;;;9.27;5.63;;;22.00;99.90;;;22.97;100.00;101064.69;5205719;28;20268;-54
2022/08/20 08:06:01;;;;;;;11.00;6.00;;;22.20;99.90;;;23.50;100.00;101068.44;5205160;28;20049;-56
2022/08/20 08:08:34;;;;;;;10.60;4.93;;;22.60;99.90;;;23.94;100.00;101074.91;5205473;28;20052;-58
2022/08/20 08:11:07;;;;;;;7.10;4.43;;;22.90;99.90;;;24.16;100.00;101079.88;5205244;28;20084;-55
2022/08/20 08:13:41;;;;;;;7.93;4.80;;;23.20;99.90;;;24.23;100.00;101079.75;5205501;28;20498;-57
2022/08/20 08:16:15;;;;;;;8.77;4.75;;;23.30;99.90;;;24.23;100.00;101073.53;5205035;28;20057;-57
2022/08/20 08:18:52;;;;;;;7.38;4.72;;;23.40;99.90;;;24.52;100.00;101081.94;5205184;28;20056;-57
2022/08/20 08:21:25;;;;;;;8.02;4.88;;;23.50;99.90;;;25.00;100.00;101076.56;5204870;28;20448;-60
2022/08/20 08:23:58;;;;;;;8.88;4.32;;;23.70;99.90;;;25.38;100.00;101069.59;5195876;28;20069;-56
2022/08/20 08:26:30;;;;;;;9.75;4.50;;;24.10;99.90;;;25.62;99.96;101074.34;5184674;28;20046;-60
2022/08/20 08:29:04;;;;;;;7.63;4.85;;;24.30;99.90;;;26.00;96.53;101079.75;5196256;28;20042;-59
2022/08/20 08:31:36;;;;;;;6.10;4.25;;;24.50;99.90;;;26.06;95.69;101079.59;5204830;28;20506;-56
2022/08/20 08:34:09;;;;;;;7.25;4.80;;;24.70;99.90;;;26.14;93.46;101080.28;5267367;23;20012;-59
2022/08/20 08:36:43;;;;;;;7.95;3.78;;;24.70;99.80;;;26.35;93.09;101087.75;5214439;28;20059;-59
2022/08/20 08:39:16;;;;;;;5.55;4.07;;;24.80;99.60;;;26.79;93.99;101086.59;5196970;28;20090;-58
2022/08/20 08:41:51;;;;;;;5.05;2.92;;;25.10;99.90;;;26.89;90.73;101092.56;5202286;28;20045;-60
2022/08/20 08:44:28;;;;;;;6.38;3.33;;;25.30;99.00;;;26.51;91.04;101093.59;5206286;28;20502;-61
2022/08/20 08:47:05;;;;;;;6.63;4.25;;;25.20;98.50;;;26.56;89.96;101094.38;5205571;28;20561;-59
2022/08/20 08:49:38;;;;;;;4.32;3.28;;;25.20;98.20;;;27.29;88.64;101100.34;5202739;28;20049;-60
2022/08/20 08:52:19;;;;;;;6.75;4.00;;;25.60;98.00;;;28.63;83.77;101095.19;5205074;28;20107;-60
2022/08/20 08:54:56;;;;;;;5.68;3.25;;;26.30;97.10;;;29.12;79.01;101103.25;5205204;28;20102;-58
2022/08/20 08:57:28;;;;;;;7.50;3.83;;;26.90;95.10;;;29.05;79.50;101099.94;5205678;28;20045;-61
2022/08/20 09:00:08;;;;;;;4.20;2.88;;;27.10;94.60;;;28.77;79.81;101102.72;5205333;28;20419;-59
2022/08/20 09:02:53;;;;;;;4.65;3.53;;;27.00;94.10;;;28.04;80.72;101116.81;5187522;28;20045;-60
2022/08/20 09:05:39;;;;;;;6.85;3.95;;;26.70;93.70;;;27.26;82.91;101121.00;5196243;28;20042;-61
2022/08/20 09:08:19;;;;;;;5.22;3.60;;;26.30;93.90;;;26.57;85.85;101120.19;5186434;28;20061;-61
2022/08/20 09:10:52;;;;;;;7.38;4.10;;;25.70;94.50;;;26.07;87.75;101119.63;5205310;28;20069;-60
2022/08/20 09:13:25;;;;;;;5.97;4.20;;;25.40;95.10;;;25.75;88.91;101114.16;5205275;28;20465;-62
2022/08/20 09:15:57;;;;;;;5.85;4.57;;;25.10;95.40;;;25.68;90.47;101122.25;5205168;28;20190;-62
2022/08/20 09:18:31;;;;;;;8.40;5.05;;;24.90;96.00;;;26.08;89.07;101126.75;5186948;28;20130;-61
2022/08/20 09:21:04;;;;;;;6.80;4.28;;;25.10;96.00;;;26.20;88.17;101121.06;5184971;28;20437;-61
2022/08/20 09:23:38;;;;;;;6.35;3.88;;;25.20;96.00;;;26.17;87.55;101122.97;5185223;28;20120;-60
2022/08/20 09:26:12;;;;;;;6.95;4.25;;;25.30;95.40;;;26.18;87.68;101125.59;5184658;28;20565;-61
2022/08/20 09:28:44;;;;;;;7.70;4.90;;;25.30;95.40;;;26.36;86.98;101118.03;5184754;28;20034;-60
2022/08/20 09:31:17;;;;;;;6.07;3.92;;;25.40;95.10;;;26.42;86.88;101120.59;5185027;28;20576;-63
2022/08/20 09:33:50;;;;;;;5.93;4.28;;;25.50;95.00;;;26.48;86.00;101123.09;5184478;28;20046;-62
2022/08/20 09:36:23;;;;;;;8.07;5.00;;;25.60;94.60;;;26.34;85.21;101125.19;5166824;28;20554;-63
2022/08/20 09:38:58;;;;;;;6.13;4.90;;;25.50;94.10;;;26.02;86.58;101115.28;5184223;28;20490;-63
2022/08/20 09:41:31;;;;;;;6.38;5.00;;;25.30;94.40;;;25.73;87.78;101124.88;5185198;28;20049;-62
2022/08/20 09:44:04;;;;;;;7.68;4.93;;;25.10;94.60;;;25.62;88.34;101125.06;5167260;28;20062;-61
2022/08/20 09:46:37;;;;;;;8.30;4.40;;;25.00;94.90;;;25.68;88.05;101116.91;5184940;28;20066;-63
2022/08/20 09:49:10;;;;;;;7.28;4.50;;;25.00;94.90;;;25.94;87.45;101128.84;5167134;28;20046;-63
2022/08/20 09:51:43;;;;;;;6.93;4.50;;;25.10;94.90;;;26.24;86.63;101130.78;5183713;28;20050;-63
2022/08/20 09:54:32;;;;;;;7.50;3.92;;;25.30;94.70;;;26.35;85.38;101135.00;5184532;28;20046;-64
2022/08/20 09:57:09;;;;;;;9.25;5.35;;;25.40;94.20;;;26.28;84.76;101128.00;5166173;28;20123;-62
2022/08/20 09:59:42;;;;;;;7.07;5.07;;;25.40;93.80;;;26.12;84.67;101128.41;5187062;28;20050;-62
2022/08/20 10:02:14;;;;;;;7.43;4.40;;;25.40;93.60;;;25.96;85.61;101127.91;5188271;28;20060;-62
2022/08/20 10:04:47;;;;;;;8.00;4.45;;;25.20;93.80;;;25.96;85.83;101127.03;5188415;28;20117;-64
2022/08/20 10:07:19;;;;;;;6.68;4.40;;;25.20;93.90;;;26.10;86.29;101122.22;5187478;28;20049;-63
2022/08/20 10:09:53;;;;;;;7.15;4.05;;;25.30;94.10;;;26.21;85.74;101130.88;5188469;28;20495;-63
2022/08/20 10:12:26;;;;;;;7.40;3.95;;;25.40;94.00;;;26.32;85.13;101125.25;5170298;28;20601;-62
2022/08/20 10:14:59;;;;;;;5.25;3.70;;;25.40;93.80;;;26.34;84.81;101131.41;5187877;28;20132;-61
2022/08/20 10:17:32;;;;;;;6.63;4.30;;;25.50;93.60;;;26.34;84.17;101127.88;5188379;28;20192;-63
2022/08/20 10:20:07;;;;;;;5.47;3.58;;;25.50;93.30;;;26.10;84.52;101138.25;5188337;28;20046;-61
2022/08/20 10:22:39;;;;;;;6.30;3.70;;;25.40;93.30;;;25.79;84.98;101132.75;5188402;28;20046;-61
2022/08/20 10:25:15;;;;;;;5.10;3.63;;;25.10;93.20;;;25.73;86.54;101130.22;5193368;28;20045;-62
2022/08/20 10:27:48;;;;;;;5.55;3.30;;;25.10;93.80;;;26.05;86.82;101132.13;5208402;28;20041;-60
2022/08/20 10:30:21;;;;;;;6.10;3.50;;;25.20;94.20;;;26.38;85.19;101129.56;5209027;28;20041;-61
2022/08/20 10:32:53;;;;;;;7.07;3.70;;;25.40;93.70;;;26.64;84.60;101137.81;5208372;28;20064;-62
2022/08/20 10:35:26;;;;;;;5.45;3.33;;;25.60;93.50;;;26.91;83.88;101146.00;5207938;28;20467;-62
2022/08/20 10:37:59;;;;;;;6.20;3.53;;;25.90;93.30;;;27.00;81.83;101140.44;5208622;28;20133;-61
2022/08/20 10:40:32;;;;;;;7.10;3.75;;;26.10;92.80;;;27.02;80.73;101143.94;5207862;28;20034;-61